Blue Lake, California
Current Conditions -  °F | °C
As of 8:53 PM on Wednesday 22 Oct 2014 (Local Time) from KACV Reporting Station
Light Rain Light Rain  
Wind Chill: 61°   Ceiling: 4300
Heat Index: 61°   Visibility: 7mi
Dew Point: 57°   Wind: 8mph
Humidity: 87%   Direction: 150°SSE
Pressure: 29.96"   Gusts: NA
Location:  40.88°N, 123.98°W
Report Text: KACV 230353Z AUTO 15007KT 7SM -RA OVC043 16/14 A2996 RMK AO2 SLP150 P0006 T01610139
Loading
Personal Weather Stations






























Interactive Weather Map
Tropical Storm Tracking
New forecast layout! Learn more

10-Day Weather Forecast

Advertisements
Track Severe Weather on mobile